createdAt,value
2023-07-24T00:01:19.487Z,12.90
2023-07-24T00:03:47.186Z,12.90
2023-07-24T00:06:14.165Z,12.90
2023-07-24T00:08:41.197Z,12.90
2023-07-24T00:11:10.979Z,12.80
2023-07-24T00:13:38.031Z,12.80
2023-07-24T00:16:09.497Z,12.80
2023-07-24T00:18:36.553Z,12.80
2023-07-24T00:21:03.569Z,12.70
2023-07-24T00:23:30.626Z,12.70
2023-07-24T00:25:57.647Z,12.80
2023-07-24T00:28:25.316Z,12.70
2023-07-24T00:30:52.397Z,12.70
2023-07-24T00:33:19.485Z,12.70
2023-07-24T00:35:46.488Z,12.60
2023-07-24T00:38:13.647Z,12.60
2023-07-24T00:40:40.685Z,12.60
2023-07-24T00:43:07.702Z,12.50
2023-07-24T00:45:34.817Z,12.50
2023-07-24T00:48:02.478Z,12.50
2023-07-24T00:50:31.277Z,12.50
2023-07-24T00:52:59.136Z,12.50
2023-07-24T00:55:26.839Z,12.50
2023-07-24T00:57:54.031Z,12.50
2023-07-24T01:00:21.285Z,12.40
2023-07-24T01:02:49.572Z,12.40
2023-07-24T01:05:17.807Z,12.40
2023-07-24T01:07:44.811Z,12.30
2023-07-24T01:10:12.233Z,12.30
2023-07-24T01:13:07.857Z,12.30
2023-07-24T01:15:39.710Z,12.30
2023-07-24T01:18:12.058Z,12.40
2023-07-24T01:20:45.027Z,12.40
2023-07-24T01:23:22.093Z,12.50
2023-07-24T01:25:59.822Z,12.50
2023-07-24T01:28:27.666Z,12.70
2023-07-24T01:30:56.065Z,12.70
2023-07-24T01:33:24.402Z,12.80
2023-07-24T01:35:56.168Z,12.80
2023-07-24T01:38:24.512Z,12.90
2023-07-24T01:40:53.084Z,12.90
2023-07-24T01:43:20.061Z,12.90
2023-07-24T01:45:47.203Z,12.80
2023-07-24T01:48:14.495Z,12.80
2023-07-24T01:50:41.703Z,12.70
2023-07-24T01:53:08.891Z,12.70
2023-07-24T01:55:35.898Z,12.60
2023-07-24T01:58:02.968Z,12.60
2023-07-24T02:00:30.229Z,12.50
2023-07-24T02:02:57.310Z,12.50
2023-07-24T02:05:24.378Z,12.50
2023-07-24T02:07:51.435Z,12.60
2023-07-24T02:10:18.507Z,12.70
2023-07-24T02:12:46.475Z,12.80
2023-07-24T02:15:13.533Z,12.80
2023-07-24T02:17:40.678Z,12.90
2023-07-24T02:20:08.375Z,13.00
2023-07-24T02:22:35.414Z,13.10
2023-07-24T02:25:02.486Z,13.10
2023-07-24T02:27:35.304Z,13.20
2023-07-24T02:30:03.263Z,13.30
2023-07-24T02:32:30.267Z,13.40
2023-07-24T02:35:05.093Z,13.50
2023-07-24T02:37:32.127Z,13.60
2023-07-24T02:39:59.142Z,13.60
2023-07-24T02:42:26.137Z,13.70
2023-07-24T02:44:54.317Z,13.80
2023-07-24T02:47:21.295Z,13.80
2023-07-24T02:49:48.505Z,13.90
2023-07-24T02:52:15.506Z,13.90
2023-07-24T02:54:42.545Z,14.00
2023-07-24T02:57:09.546Z,14.00
2023-07-24T02:59:36.779Z,14.00
2023-07-24T03:02:03.948Z,14.00
2023-07-24T03:04:32.269Z,14.10
2023-07-24T03:06:59.235Z,14.10
2023-07-24T03:09:26.177Z,14.20
2023-07-24T03:11:53.154Z,14.20
2023-07-24T03:14:20.162Z,14.20
2023-07-24T03:16:47.110Z,14.10
2023-07-24T03:19:14.082Z,14.00
2023-07-24T03:21:41.056Z,14.10
2023-07-24T03:24:08.049Z,14.10
2023-07-24T03:26:35.166Z,14.20
2023-07-24T03:29:02.238Z,14.30
2023-07-24T03:31:29.259Z,14.40
2023-07-24T03:33:56.318Z,14.50
2023-07-24T03:36:24.752Z,14.60
2023-07-24T03:38:51.903Z,14.70
2023-07-24T03:41:18.900Z,14.80
2023-07-24T03:43:45.854Z,14.90
2023-07-24T03:46:12.897Z,14.90
2023-07-24T03:48:39.949Z,15.00
2023-07-24T03:51:08.469Z,15.20
2023-07-24T03:53:35.527Z,15.30
2023-07-24T03:56:02.555Z,15.40
2023-07-24T03:58:29.609Z,15.40
2023-07-24T04:00:56.677Z,15.30
2023-07-24T04:03:23.741Z,15.20
2023-07-24T04:05:50.704Z,15.10
2023-07-24T04:08:17.685Z,15.00
2023-07-24T04:10:44.660Z,15.00
2023-07-24T04:13:11.627Z,14.90
2023-07-24T04:15:39.428Z,15.00
2023-07-24T04:18:06.835Z,15.00
2023-07-24T04:20:33.897Z,15.10
2023-07-24T04:23:00.861Z,15.20
2023-07-24T04:25:28.122Z,15.20
2023-07-24T04:27:55.114Z,15.20
2023-07-24T04:30:22.454Z,15.20
2023-07-24T04:32:49.473Z,15.30
2023-07-24T04:35:16.540Z,15.40
2023-07-24T04:37:43.550Z,15.40
2023-07-24T04:40:11.605Z,15.50
2023-07-24T04:42:38.655Z,15.60
2023-07-24T04:45:06.049Z,15.60
2023-07-24T04:47:33.024Z,15.80
2023-07-24T04:50:00.014Z,15.90
2023-07-24T04:52:27.001Z,16.00
2023-07-24T04:54:53.988Z,16.10
2023-07-24T04:57:21.005Z,16.30
2023-07-24T04:59:49.128Z,16.50
2023-07-24T05:02:17.563Z,16.70
2023-07-24T05:04:44.587Z,17.00
2023-07-24T05:07:11.676Z,17.20
2023-07-24T05:09:38.647Z,17.50
2023-07-24T05:12:06.216Z,17.70
2023-07-24T05:14:33.215Z,17.80
2023-07-24T05:17:00.182Z,17.90
2023-07-24T05:19:27.196Z,18.10
2023-07-24T05:21:54.182Z,18.10
2023-07-24T05:24:21.283Z,18.20
2023-07-24T05:26:48.344Z,18.30
2023-07-24T05:29:15.292Z,18.30
2023-07-24T05:31:42.390Z,18.40
2023-07-24T05:34:09.452Z,18.60
2023-07-24T05:36:36.500Z,19.00
2023-07-24T05:39:03.580Z,19.90
2023-07-24T05:41:30.645Z,21.10
2023-07-24T05:43:57.642Z,22.00
2023-07-24T05:46:24.669Z,22.30
2023-07-24T05:48:51.673Z,22.40
2023-07-24T05:51:18.720Z,22.90
2023-07-24T05:53:45.733Z,23.40
2023-07-24T05:56:12.708Z,23.30
2023-07-24T05:58:39.715Z,22.60
2023-07-24T06:01:09.404Z,21.90
2023-07-24T06:03:36.451Z,21.30
2023-07-24T06:06:03.762Z,20.90
2023-07-24T06:08:30.817Z,20.40
2023-07-24T06:10:57.893Z,20.30
2023-07-24T06:13:24.895Z,20.40
2023-07-24T06:15:53.423Z,20.60
2023-07-24T06:18:20.482Z,20.70
2023-07-24T06:20:48.281Z,20.50
2023-07-24T06:23:15.223Z,20.30
2023-07-24T06:25:42.232Z,19.90
2023-07-24T06:28:09.201Z,19.70
2023-07-24T06:30:36.215Z,19.50
2023-07-24T06:33:03.400Z,19.20
2023-07-24T06:35:30.901Z,19.10
2023-07-24T06:37:58.024Z,19.00
2023-07-24T06:40:25.019Z,19.00
2023-07-24T06:42:52.119Z,18.90
2023-07-24T06:45:19.188Z,18.90
2023-07-24T06:47:46.206Z,18.90
2023-07-24T06:50:13.211Z,18.90
2023-07-24T06:52:40.192Z,18.90
2023-07-24T06:55:10.305Z,18.80
2023-07-24T06:57:37.257Z,18.80
2023-07-24T07:00:06.494Z,18.90
2023-07-24T07:02:34.351Z,18.90
2023-07-24T07:05:01.459Z,18.90
2023-07-24T07:07:28.457Z,18.90
2023-07-24T07:09:55.396Z,18.80
2023-07-24T07:12:22.565Z,18.70
2023-07-24T07:14:49.669Z,18.70
2023-07-24T07:17:16.689Z,18.70
2023-07-24T07:19:43.659Z,18.70
2023-07-24T07:22:10.659Z,18.70
2023-07-24T07:24:37.788Z,18.70
2023-07-24T07:27:09.264Z,18.70
2023-07-24T07:29:36.410Z,18.70
2023-07-24T07:32:03.489Z,18.80
2023-07-24T07:34:30.455Z,18.80
2023-07-24T07:36:57.464Z,18.70
2023-07-24T07:39:24.437Z,18.80
2023-07-24T07:41:56.060Z,18.90
2023-07-24T07:44:28.298Z,19.00
2023-07-24T07:46:55.339Z,19.40
2023-07-24T07:49:22.309Z,19.80
2023-07-24T07:51:49.520Z,20.10
2023-07-24T07:54:17.161Z,20.40
2023-07-24T07:56:44.283Z,20.70
2023-07-24T07:59:11.267Z,21.00
2023-07-24T08:01:40.550Z,21.10
2023-07-24T08:04:07.603Z,21.00
2023-07-24T08:06:34.637Z,21.00
2023-07-24T08:09:01.640Z,20.90
2023-07-24T08:11:28.608Z,20.90
2023-07-24T08:13:55.738Z,20.90
2023-07-24T08:16:22.739Z,21.00
2023-07-24T08:18:49.948Z,21.10
2023-07-24T08:21:16.982Z,21.10
2023-07-24T08:23:44.121Z,21.20
2023-07-24T08:26:11.163Z,21.20
2023-07-24T08:28:38.204Z,21.20
2023-07-24T08:31:07.561Z,21.20
2023-07-24T08:33:34.984Z,21.30
2023-07-24T08:36:04.222Z,21.30
2023-07-24T08:38:31.544Z,21.40
2023-07-24T08:41:06.852Z,21.40
2023-07-24T08:43:35.956Z,21.50
2023-07-24T08:46:04.357Z,21.70
2023-07-24T08:48:39.124Z,21.80
2023-07-24T08:51:08.322Z,22.00
2023-07-24T08:53:40.163Z,22.10
2023-07-24T08:56:08.985Z,22.10
2023-07-24T08:58:36.767Z,22.20
2023-07-24T09:01:05.470Z,22.20
2023-07-24T09:03:34.358Z,22.20
2023-07-24T09:06:05.372Z,22.20
2023-07-24T09:08:41.040Z,22.10
2023-07-24T09:11:11.348Z,21.80
2023-07-24T09:13:43.242Z,21.50
2023-07-24T09:16:11.005Z,21.30
2023-07-24T09:18:42.328Z,21.20
2023-07-24T09:21:10.043Z,20.90
2023-07-24T09:23:37.022Z,20.80
2023-07-24T09:26:08.623Z,20.80
2023-07-24T09:28:36.495Z,20.70
2023-07-24T09:31:03.998Z,20.50
2023-07-24T09:33:37.308Z,20.40
2023-07-24T09:36:06.589Z,20.30
2023-07-24T09:38:33.639Z,20.30
2023-07-24T09:41:03.669Z,20.20
2023-07-24T09:43:39.861Z,20.10
2023-07-24T09:46:08.620Z,20.10
2023-07-24T09:48:41.630Z,19.90
2023-07-24T09:51:14.756Z,19.80
2023-07-24T09:53:53.762Z,19.70
2023-07-24T09:56:31.591Z,19.60
2023-07-24T09:59:07.466Z,19.50
2023-07-24T10:01:35.205Z,19.40
2023-07-24T10:04:04.744Z,19.20
2023-07-24T10:06:33.238Z,19.10
2023-07-24T10:09:01.911Z,19.00
2023-07-24T10:11:29.681Z,18.90
2023-07-24T10:13:57.349Z,18.80
2023-07-24T10:16:24.449Z,18.60
2023-07-24T10:18:51.527Z,18.50
2023-07-24T10:21:18.608Z,18.50
2023-07-24T10:23:50.135Z,18.40
2023-07-24T10:26:18.003Z,18.50
2023-07-24T10:28:49.796Z,18.50
2023-07-24T10:31:35.772Z,18.40
2023-07-24T10:34:07.343Z,18.40
2023-07-24T10:36:39.479Z,18.40
2023-07-24T10:39:16.338Z,18.30
2023-07-24T10:41:45.495Z,18.40
2023-07-24T10:44:12.503Z,18.50
2023-07-24T10:46:46.401Z,18.60
2023-07-24T10:49:13.420Z,18.70
2023-07-24T10:51:40.615Z,18.70
2023-07-24T10:54:07.902Z,18.70
2023-07-24T10:56:37.442Z,18.70
2023-07-24T10:59:07.554Z,18.70
2023-07-24T11:01:35.774Z,18.70
2023-07-24T11:04:03.784Z,18.70
2023-07-24T11:06:30.854Z,18.70
2023-07-24T11:09:00.370Z,18.80
2023-07-24T11:11:35.787Z,18.70
2023-07-24T11:14:04.138Z,18.70
2023-07-24T11:16:32.843Z,18.60
2023-07-24T11:19:00.331Z,18.70
2023-07-24T11:21:27.540Z,18.70
2023-07-24T11:23:56.736Z,18.70
2023-07-24T11:26:25.482Z,18.70
2023-07-24T11:28:53.749Z,18.70
2023-07-24T11:31:21.581Z,18.70
2023-07-24T11:33:53.771Z,18.70
2023-07-24T11:36:21.309Z,18.80
2023-07-24T11:38:48.934Z,18.80
2023-07-24T11:41:18.888Z,18.80
2023-07-24T11:43:50.717Z,18.80
2023-07-24T11:46:28.423Z,18.80
2023-07-24T11:48:58.789Z,18.90
2023-07-24T11:51:27.356Z,19.00
2023-07-24T11:54:04.757Z,19.00
2023-07-24T11:56:31.722Z,19.10
2023-07-24T11:58:58.706Z,19.20
2023-07-24T12:01:25.702Z,19.20
2023-07-24T12:03:52.824Z,19.10
2023-07-24T12:06:21.257Z,19.00
2023-07-24T12:08:48.326Z,18.80
2023-07-24T12:11:22.690Z,18.70
2023-07-24T12:13:51.471Z,18.40
2023-07-24T12:16:19.556Z,18.20
2023-07-24T12:18:46.636Z,18.00
2023-07-24T12:21:13.575Z,17.90
2023-07-24T12:23:40.606Z,17.90
2023-07-24T12:26:08.518Z,17.90
2023-07-24T12:28:35.492Z,17.80
2023-07-24T12:31:03.628Z,17.80
2023-07-24T12:33:30.687Z,17.70
2023-07-24T12:35:57.690Z,17.70
2023-07-24T12:38:24.643Z,17.60
2023-07-24T12:40:51.720Z,17.60
2023-07-24T12:43:18.834Z,17.60
2023-07-24T12:45:45.934Z,17.50
2023-07-24T12:48:13.069Z,17.50
2023-07-24T12:50:40.143Z,17.50
2023-07-24T12:53:08.350Z,17.50
2023-07-24T12:55:38.175Z,17.50
2023-07-24T12:58:05.628Z,17.50
2023-07-24T13:00:33.064Z,17.50
2023-07-24T13:03:00.293Z,17.50
2023-07-24T13:05:27.440Z,17.50
2023-07-24T13:07:54.448Z,17.50
2023-07-24T13:10:24.602Z,17.50
2023-07-24T13:12:51.723Z,17.50
2023-07-24T13:15:21.930Z,17.50
2023-07-24T13:17:56.625Z,17.40
2023-07-24T13:20:26.729Z,17.30
2023-07-24T13:22:53.760Z,17.30
2023-07-24T13:25:21.701Z,17.30
2023-07-24T13:27:48.723Z,17.20
2023-07-24T13:30:15.833Z,17.20
2023-07-24T13:32:43.024Z,17.10
2023-07-24T13:35:10.140Z,17.10
2023-07-24T13:37:37.133Z,17.20
2023-07-24T13:40:04.340Z,17.20
2023-07-24T13:42:31.381Z,17.30
2023-07-24T13:44:58.373Z,17.30
2023-07-24T13:47:25.473Z,17.30
2023-07-24T13:49:52.692Z,17.30
2023-07-24T13:52:19.686Z,17.30
2023-07-24T13:54:49.756Z,17.40
2023-07-24T13:57:16.861Z,17.40
2023-07-24T13:59:43.908Z,17.40
2023-07-24T14:02:10.941Z,17.30
2023-07-24T14:04:37.985Z,17.30
2023-07-24T14:07:05.069Z,17.30
2023-07-24T14:09:33.962Z,17.30
2023-07-24T14:12:01.021Z,17.40
2023-07-24T14:14:28.215Z,17.50
2023-07-24T14:16:55.183Z,17.50
2023-07-24T14:19:22.177Z,17.50
2023-07-24T14:21:49.127Z,17.50
2023-07-24T14:24:16.145Z,17.50
2023-07-24T14:26:43.217Z,17.50
2023-07-24T14:29:10.252Z,17.60
2023-07-24T14:31:37.798Z,17.70
2023-07-24T14:34:05.298Z,17.70
2023-07-24T14:36:35.267Z,17.70
2023-07-24T14:39:02.338Z,17.70
2023-07-24T14:41:29.831Z,17.70
2023-07-24T14:43:57.095Z,17.90
2023-07-24T14:46:24.206Z,18.20
2023-07-24T14:48:51.328Z,18.40
2023-07-24T14:51:18.288Z,18.60
2023-07-24T14:53:45.340Z,18.70
2023-07-24T14:56:12.303Z,18.60
2023-07-24T14:58:39.320Z,18.60
2023-07-24T15:01:06.820Z,18.50
2023-07-24T15:03:33.909Z,18.50
2023-07-24T15:06:05.005Z,18.50
2023-07-24T15:08:32.472Z,18.40
2023-07-24T15:10:59.574Z,18.40
2023-07-24T15:13:26.671Z,18.30
2023-07-24T15:15:53.705Z,18.30
2023-07-24T15:18:20.735Z,18.30
2023-07-24T15:20:47.746Z,18.30
2023-07-24T15:23:14.798Z,18.30
2023-07-24T15:25:41.888Z,18.30
2023-07-24T15:28:08.959Z,18.20
2023-07-24T15:30:35.998Z,18.20
2023-07-24T15:33:03.065Z,18.20
2023-07-24T15:35:30.128Z,18.20
2023-07-24T15:37:57.150Z,18.30
2023-07-24T15:40:24.150Z,18.30
2023-07-24T15:42:51.141Z,18.30
2023-07-24T15:45:18.221Z,18.20
2023-07-24T15:47:45.512Z,18.20
2023-07-24T15:50:12.549Z,18.10
2023-07-24T15:52:39.554Z,18.10
2023-07-24T15:55:06.711Z,18.10
2023-07-24T15:57:33.713Z,18.10
2023-07-24T16:00:00.696Z,18.00
2023-07-24T16:02:27.898Z,18.00
2023-07-24T16:04:55.045Z,17.90
2023-07-24T16:07:22.057Z,17.80
2023-07-24T16:09:49.069Z,17.80
2023-07-24T16:12:16.035Z,17.70
2023-07-24T16:14:43.390Z,17.70
2023-07-24T16:17:10.504Z,17.70
2023-07-24T16:19:38.193Z,17.80
2023-07-24T16:22:05.611Z,17.90
2023-07-24T16:24:32.704Z,18.00
2023-07-24T16:27:01.772Z,18.10
2023-07-24T16:29:28.969Z,18.20
2023-07-24T16:32:00.421Z,18.30
2023-07-24T16:34:29.290Z,18.40
2023-07-24T16:36:56.970Z,18.40
2023-07-24T16:39:24.510Z,18.40
2023-07-24T16:41:53.013Z,18.30
2023-07-24T16:44:20.129Z,18.30
2023-07-24T16:46:47.209Z,18.30
2023-07-24T16:49:14.266Z,18.20
2023-07-24T16:51:41.260Z,18.20
2023-07-24T16:54:08.515Z,18.10
2023-07-24T16:56:35.544Z,18.00
2023-07-24T16:59:02.534Z,18.00
2023-07-24T17:01:30.808Z,18.10
2023-07-24T17:03:59.000Z,18.10
2023-07-24T17:06:26.342Z,18.20
2023-07-24T17:08:53.394Z,18.20
2023-07-24T17:11:20.414Z,18.20
2023-07-24T17:13:48.386Z,18.10
2023-07-24T17:16:15.475Z,18.00
2023-07-24T17:18:42.721Z,18.00
2023-07-24T17:21:09.733Z,17.90
2023-07-24T17:23:36.771Z,17.90
2023-07-24T17:26:03.888Z,17.80
2023-07-24T17:28:30.891Z,17.70
2023-07-24T17:30:57.878Z,17.60
2023-07-24T17:33:26.288Z,17.50
2023-07-24T17:35:53.551Z,17.50
2023-07-24T17:38:20.553Z,17.40
2023-07-24T17:40:47.547Z,17.40
2023-07-24T17:43:14.635Z,17.30
2023-07-24T17:45:41.591Z,17.20
2023-07-24T17:48:08.722Z,17.20
2023-07-24T17:50:36.427Z,17.10
2023-07-24T17:53:03.482Z,17.10
2023-07-24T17:55:30.511Z,17.10
2023-07-24T17:57:57.522Z,17.00
2023-07-24T18:00:24.548Z,16.90
2023-07-24T18:02:51.710Z,16.90
2023-07-24T18:05:18.877Z,16.80
2023-07-24T18:07:45.868Z,16.80
2023-07-24T18:10:13.001Z,16.70
2023-07-24T18:12:40.573Z,16.70
2023-07-24T18:15:08.135Z,16.60
2023-07-24T18:17:35.322Z,16.60
2023-07-24T18:20:02.314Z,16.60
2023-07-24T18:22:29.905Z,16.50
2023-07-24T18:24:56.920Z,16.40
2023-07-24T18:27:23.899Z,16.40
2023-07-24T18:29:50.930Z,16.40
2023-07-24T18:32:17.885Z,16.30
2023-07-24T18:34:44.968Z,16.30
2023-07-24T18:37:12.056Z,16.20
2023-07-24T18:39:39.027Z,16.20
2023-07-24T18:42:06.371Z,16.10
2023-07-24T18:44:35.304Z,16.10
2023-07-24T18:47:02.338Z,16.10
2023-07-24T18:49:29.895Z,16.10
2023-07-24T18:51:56.946Z,16.00
2023-07-24T18:54:23.925Z,15.90
2023-07-24T18:56:51.123Z,15.90
2023-07-24T18:59:18.357Z,15.90
2023-07-24T19:01:45.403Z,15.80
2023-07-24T19:04:12.419Z,15.70
2023-07-24T19:06:39.775Z,15.60
2023-07-24T19:09:06.818Z,15.60
2023-07-24T19:11:34.142Z,15.60
2023-07-24T19:14:01.206Z,15.60
2023-07-24T19:16:28.245Z,15.60
2023-07-24T19:18:55.431Z,15.60
2023-07-24T19:21:22.441Z,15.60
2023-07-24T19:23:49.493Z,15.50
2023-07-24T19:26:16.511Z,15.50
2023-07-24T19:28:43.981Z,15.50
2023-07-24T19:31:11.213Z,15.50
2023-07-24T19:33:38.225Z,15.50
2023-07-24T19:36:05.493Z,15.50
2023-07-24T19:38:32.497Z,15.40
2023-07-24T19:41:01.107Z,15.30
2023-07-24T19:43:28.852Z,15.30
2023-07-24T19:45:56.082Z,15.40
2023-07-24T19:48:26.002Z,15.40
2023-07-24T19:50:57.747Z,15.40
2023-07-24T19:53:25.635Z,15.50
2023-07-24T19:55:56.183Z,15.50
2023-07-24T19:58:33.253Z,15.40
2023-07-24T20:01:01.480Z,15.40
2023-07-24T20:03:29.095Z,15.30
2023-07-24T20:05:58.909Z,15.20
2023-07-24T20:08:27.748Z,15.20
2023-07-24T20:10:57.955Z,15.10
2023-07-24T20:13:25.424Z,15.00
2023-07-24T20:15:52.646Z,15.00
2023-07-24T20:18:19.833Z,14.90
2023-07-24T20:20:48.406Z,14.90
2023-07-24T20:23:16.738Z,14.90
2023-07-24T20:25:46.141Z,14.90
2023-07-24T20:28:13.736Z,14.90
2023-07-24T20:30:40.978Z,14.90
2023-07-24T20:33:07.964Z,14.80
2023-07-24T20:35:35.137Z,14.80
2023-07-24T20:38:05.548Z,14.80
2023-07-24T20:40:35.736Z,14.90
2023-07-24T20:43:05.679Z,14.90
2023-07-24T20:45:32.832Z,15.00
2023-07-24T20:47:59.963Z,15.00
2023-07-24T20:50:27.038Z,15.00
2023-07-24T20:52:54.074Z,15.10
2023-07-24T20:55:21.125Z,15.10
2023-07-24T20:57:48.126Z,15.10
2023-07-24T21:00:15.566Z,15.10
2023-07-24T21:02:42.610Z,15.10
2023-07-24T21:05:10.123Z,15.10
2023-07-24T21:07:37.137Z,15.10
2023-07-24T21:10:04.513Z,15.10
2023-07-24T21:12:31.586Z,15.10
2023-07-24T21:14:58.535Z,15.20
2023-07-24T21:17:25.555Z,15.20
2023-07-24T21:19:52.652Z,15.20
2023-07-24T21:22:19.688Z,15.20
2023-07-24T21:24:46.671Z,15.30
2023-07-24T21:27:13.720Z,15.30
2023-07-24T21:29:40.748Z,15.40
2023-07-24T21:32:08.106Z,15.40
2023-07-24T21:34:35.170Z,15.40
2023-07-24T21:37:02.186Z,15.40
2023-07-24T21:39:29.452Z,15.40
2023-07-24T21:41:56.458Z,15.50
2023-07-24T21:44:23.397Z,15.50
2023-07-24T21:46:50.382Z,15.50
2023-07-24T21:49:17.410Z,15.60
2023-07-24T21:51:44.443Z,15.50
2023-07-24T21:54:11.451Z,15.60
2023-07-24T21:56:38.597Z,15.50
2023-07-24T21:59:05.643Z,15.50
2023-07-24T22:01:33.139Z,15.50
2023-07-24T22:04:00.446Z,15.50
2023-07-24T22:06:27.462Z,15.50
2023-07-24T22:08:54.515Z,15.50
2023-07-24T22:11:22.700Z,15.40
2023-07-24T22:13:49.734Z,15.40
2023-07-24T22:16:16.960Z,15.40
2023-07-24T22:18:44.051Z,15.40
2023-07-24T22:21:11.036Z,15.40
2023-07-24T22:23:38.094Z,15.30
2023-07-24T22:26:05.102Z,15.30
2023-07-24T22:28:32.156Z,15.30
2023-07-24T22:30:59.172Z,15.30
2023-07-24T22:33:26.231Z,15.30
2023-07-24T22:36:02.451Z,15.30
2023-07-24T22:38:29.469Z,15.30
2023-07-24T22:40:56.411Z,15.30
2023-07-24T22:43:23.463Z,15.30
2023-07-24T22:45:50.592Z,15.30
2023-07-24T22:48:17.633Z,15.30
2023-07-24T22:50:44.666Z,15.30
2023-07-24T22:53:11.642Z,15.30
2023-07-24T22:55:38.636Z,15.30
2023-07-24T22:58:05.706Z,15.30
2023-07-24T23:00:32.688Z,15.30
2023-07-24T23:02:59.783Z,15.30
2023-07-24T23:05:26.868Z,15.30
2023-07-24T23:07:56.403Z,15.30
2023-07-24T23:10:23.768Z,15.30
2023-07-24T23:12:50.763Z,15.30
2023-07-24T23:15:17.826Z,15.30
2023-07-24T23:17:44.824Z,15.30
2023-07-24T23:20:11.885Z,15.30
2023-07-24T23:22:39.835Z,15.30
2023-07-24T23:25:07.329Z,15.20
2023-07-24T23:27:34.287Z,15.30
2023-07-24T23:30:01.373Z,15.30
2023-07-24T23:32:28.433Z,15.30
2023-07-24T23:34:55.591Z,15.30
2023-07-24T23:37:22.965Z,15.30
2023-07-24T23:39:49.943Z,15.30
2023-07-24T23:42:16.944Z,15.30
2023-07-24T23:44:43.991Z,15.30
2023-07-24T23:47:11.720Z,15.30
2023-07-24T23:49:38.764Z,15.30
2023-07-24T23:52:06.165Z,15.30
2023-07-24T23:54:33.207Z,15.30
2023-07-24T23:57:00.230Z,15.30
2023-07-24T23:59:27.245Z,15.20
